Time;durP1;ratioP1;P1;durP2;ratioP2;P2;SDS_P1;SDS_P2;PMS_P1;PMS_P2;Temp;Humidity;BMP_temperature;BMP_pressure;BME280_temperature;BME280_humidity;BME280_pressure;Samples;Min_cycle;Max_cycle;Signal;HPM_P1;HPM_P2
2023/11/10 00:02:02;;;;;;;4.30;3.90;;;8.30;50.60;;;;;;5040471;28;20254;-54
2023/11/10 00:04:29;;;;;;;3.80;3.50;;;8.30;50.70;;;;;;5048076;28;20402;-51
2023/11/10 00:06:55;;;;;;;3.80;3.50;;;8.20;50.80;;;;;;5051543;28;20225;-50
2023/11/10 00:09:22;;;;;;;3.90;3.60;;;8.20;50.70;;;;;;5046261;28;20210;-49
2023/11/10 00:11:49;;;;;;;3.90;3.40;;;8.30;50.70;;;;;;5049044;28;20293;-50
2023/11/10 00:14:15;;;;;;;4.97;3.80;;;8.20;50.70;;;;;;5051252;28;20577;-50
2023/11/10 00:16:42;;;;;;;3.93;3.60;;;8.20;50.80;;;;;;5047845;28;20256;-50
2023/11/10 00:19:08;;;;;;;3.67;3.47;;;8.20;51.20;;;;;;5041693;28;20213;-49
2023/11/10 00:21:36;;;;;;;4.37;3.87;;;8.10;51.40;;;;;;5043138;28;20309;-53
2023/11/10 00:24:05;;;;;;;3.83;3.57;;;8.10;51.50;;;;;;5036879;28;20209;-52
2023/11/10 00:26:34;;;;;;;7.13;4.47;;;8.10;51.30;;;;;;5046692;28;20578;-51
2023/11/10 00:29:03;;;;;;;4.77;4.30;;;8.00;51.30;;;;;;5049311;28;20212;-52
2023/11/10 00:31:29;;;;;;;4.77;3.83;;;8.00;51.30;;;;;;5048471;28;20603;-51
2023/11/10 00:33:57;;;;;;;3.87;3.57;;;7.90;51.40;;;;;;5044661;28;20288;-48
2023/11/10 00:36:23;;;;;;;4.40;4.03;;;7.90;51.80;;;;;;5047803;28;20562;-51
2023/11/10 00:38:50;;;;;;;4.10;3.80;;;7.90;51.90;;;;;;5043645;28;20233;-52
2023/11/10 00:41:16;;;;;;;4.23;3.83;;;7.80;52.30;;;;;;5042044;28;20227;-53
2023/11/10 00:43:43;;;;;;;3.80;3.53;;;7.70;52.30;;;;;;5050236;28;20281;-53
2023/11/10 00:46:09;;;;;;;4.00;3.70;;;7.70;52.40;;;;;;5045936;28;20226;-53
2023/11/10 00:48:36;;;;;;;3.90;3.50;;;7.70;52.50;;;;;;5050420;28;20629;-54
2023/11/10 00:51:02;;;;;;;4.00;3.70;;;7.60;52.50;;;;;;5049670;28;20312;-51
2023/11/10 00:53:29;;;;;;;3.80;3.43;;;7.60;52.50;;;;;;5045347;28;20328;-53
2023/11/10 00:55:55;;;;;;;4.07;3.63;;;7.60;52.50;;;;;;5047275;28;20304;-53
2023/11/10 00:58:21;;;;;;;4.23;3.60;;;7.60;52.50;;;;;;5044646;28;20206;-52
2023/11/10 01:00:48;;;;;;;3.90;3.60;;;7.60;52.50;;;;;;5046712;28;20293;-51
2023/11/10 01:03:14;;;;;;;4.53;3.80;;;7.60;52.50;;;;;;5050109;28;20216;-55
2023/11/10 01:05:41;;;;;;;4.07;3.77;;;7.50;52.60;;;;;;5042366;28;20229;-49
2023/11/10 01:08:07;;;;;;;3.90;3.60;;;7.60;52.60;;;;;;5050788;28;20194;-50
2023/11/10 01:10:34;;;;;;;3.97;3.67;;;7.60;52.20;;;;;;5046980;28;20296;-51
2023/11/10 01:13:00;;;;;;;3.73;3.43;;;7.60;51.90;;;;;;5050925;28;20294;-51
2023/11/10 01:15:27;;;;;;;4.03;3.63;;;7.60;51.90;;;;;;5042014;28;20294;-50
2023/11/10 01:17:53;;;;;;;3.93;3.63;;;7.60;51.90;;;;;;5041087;28;20279;-51
2023/11/10 01:20:20;;;;;;;3.90;3.60;;;7.50;52.00;;;;;;5048738;28;20206;-49
2023/11/10 01:22:46;;;;;;;4.03;3.73;;;7.50;52.30;;;;;;5050769;28;20312;-51
2023/11/10 01:25:13;;;;;;;4.70;4.07;;;7.40;52.10;;;;;;5044539;28;20224;-52
2023/11/10 01:27:41;;;;;;;4.73;4.30;;;7.40;51.80;;;;;;5045748;28;20202;-49
2023/11/10 01:30:07;;;;;;;3.83;3.53;;;7.40;51.80;;;;;;5046968;28;20201;-51
2023/11/10 01:32:34;;;;;;;4.10;3.70;;;7.30;51.70;;;;;;5050194;28;20320;-51
2023/11/10 01:35:01;;;;;;;4.17;3.77;;;7.30;51.70;;;;;;5042913;28;20260;-51
2023/11/10 01:37:27;;;;;;;3.93;3.63;;;7.30;51.90;;;;;;5044109;28;20210;-51
2023/11/10 01:39:54;;;;;;;4.40;3.97;;;7.20;52.70;;;;;;5046268;28;20202;-50
2023/11/10 01:42:21;;;;;;;4.03;3.57;;;7.20;51.80;;;;;;5047564;28;20222;-50
2023/11/10 01:44:48;;;;;;;3.83;3.53;;;7.20;51.70;;;;;;5048164;28;20206;-51
2023/11/10 01:47:14;;;;;;;4.07;3.77;;;7.20;51.30;;;;;;5046683;28;20229;-51
2023/11/10 01:49:41;;;;;;;4.03;3.73;;;7.20;51.20;;;;;;5049085;28;20296;-51
2023/11/10 01:52:07;;;;;;;4.47;3.60;;;7.20;51.20;;;;;;5052231;28;20315;-55
2023/11/10 01:54:35;;;;;;;4.60;4.20;;;7.20;51.00;;;;;;5053639;28;20296;-51
2023/11/10 01:57:03;;;;;;;4.27;3.97;;;7.10;50.90;;;;;;5041775;28;20205;-53
2023/11/10 01:59:30;;;;;;;4.57;3.87;;;7.10;50.70;;;;;;5044979;28;20578;-52
2023/11/10 02:01:57;;;;;;;3.97;3.57;;;7.10;50.80;;;;;;5049657;28;20225;-51
2023/11/10 02:04:23;;;;;;;4.43;4.03;;;7.10;50.20;;;;;;5054423;28;20202;-53
2023/11/10 02:06:51;;;;;;;4.37;3.97;;;7.10;49.80;;;;;;5054235;28;20254;-50
2023/11/10 02:09:18;;;;;;;4.23;3.83;;;7.10;49.80;;;;;;5047912;28;20205;-52
2023/11/10 02:11:44;;;;;;;4.60;4.20;;;7.20;49.90;;;;;;5049366;28;20298;-54
2023/11/10 02:14:11;;;;;;;4.30;4.00;;;7.10;50.30;;;;;;5052724;28;20279;-51
2023/11/10 02:16:37;;;;;;;4.57;4.27;;;7.10;49.20;;;;;;5052641;28;20251;-52
2023/11/10 02:19:04;;;;;;;4.90;3.93;;;7.10;49.10;;;;;;5044662;28;20241;-51
2023/11/10 02:21:30;;;;;;;3.87;3.57;;;7.20;48.40;;;;;;5051571;28;20272;-50
2023/11/10 02:23:57;;;;;;;4.33;3.93;;;7.20;48.30;;;;;;5052899;28;20720;-49
2023/11/10 02:26:24;;;;;;;5.20;3.60;;;7.30;47.80;;;;;;5049839;28;20308;-54
2023/11/10 02:28:50;;;;;;;4.43;4.03;;;7.20;47.70;;;;;;5046703;28;20205;-54
2023/11/10 02:31:17;;;;;;;4.33;3.87;;;7.20;47.70;;;;;;5046961;28;20861;-55
2023/11/10 02:33:43;;;;;;;4.07;3.77;;;7.30;48.40;;;;;;5041868;28;20296;-53
2023/11/10 02:36:10;;;;;;;4.63;4.13;;;7.20;47.80;;;;;;5051538;28;20281;-50
2023/11/10 02:38:36;;;;;;;4.37;4.00;;;7.20;47.70;;;;;;5053065;28;20669;-52
2023/11/10 02:41:03;;;;;;;3.80;3.50;;;7.20;47.70;;;;;;5045791;28;20235;-52
2023/11/10 02:43:29;;;;;;;4.40;4.00;;;7.20;47.70;;;;;;5049678;28;20649;-52
2023/11/10 02:45:56;;;;;;;4.60;4.20;;;7.20;47.70;;;;;;5052820;28;20257;-52
2023/11/10 02:48:22;;;;;;;4.47;4.07;;;7.30;47.80;;;;;;5054028;28;20285;-54
2023/11/10 02:50:49;;;;;;;4.20;3.90;;;7.30;47.80;;;;;;5040021;28;20224;-51
2023/11/10 02:53:15;;;;;;;4.20;3.90;;;7.30;47.80;;;;;;5050540;28;20343;-49
2023/11/10 02:55:42;;;;;;;4.60;4.20;;;7.40;47.80;;;;;;5051837;28;20290;-51
2023/11/10 02:58:08;;;;;;;4.40;4.00;;;7.40;47.60;;;;;;5049974;28;20249;-52
2023/11/10 03:00:35;;;;;;;4.20;3.90;;;7.40;47.80;;;;;;5052649;28;20672;-53
2023/11/10 03:03:01;;;;;;;4.73;4.23;;;7.40;47.60;;;;;;5051904;28;20616;-51
2023/11/10 03:05:28;;;;;;;4.17;3.77;;;7.40;47.50;;;;;;5050594;28;20286;-50
2023/11/10 03:07:54;;;;;;;3.63;3.33;;;7.30;47.30;;;;;;5041593;28;20317;-50
2023/11/10 03:10:21;;;;;;;3.53;3.20;;;7.30;47.00;;;;;;5046571;28;20629;-53
2023/11/10 03:12:48;;;;;;;3.80;3.50;;;7.30;47.20;;;;;;5051712;28;20280;-53
2023/11/10 03:15:14;;;;;;;3.83;3.53;;;7.30;47.30;;;;;;5050845;28;20217;-52
2023/11/10 03:17:41;;;;;;;3.80;3.50;;;7.30;47.10;;;;;;5049932;28;20230;-55
2023/11/10 03:20:09;;;;;;;4.10;3.70;;;7.30;47.20;;;;;;5048798;28;20200;-54
2023/11/10 03:22:35;;;;;;;4.10;3.30;;;7.30;47.00;;;;;;5051628;28;21149;-54
2023/11/10 03:25:02;;;;;;;3.70;3.40;;;7.40;46.80;;;;;;5044095;28;20206;-50
2023/11/10 03:27:28;;;;;;;3.67;3.37;;;7.30;47.00;;;;;;5049479;28;20258;-53
2023/11/10 03:29:55;;;;;;;3.60;3.30;;;7.30;47.10;;;;;;5051395;28;20297;-50
2023/11/10 03:32:21;;;;;;;3.90;3.23;;;7.30;47.00;;;;;;5051368;28;20274;-50
2023/11/10 03:34:48;;;;;;;4.03;3.63;;;7.30;47.30;;;;;;5049706;28;20285;-54
2023/11/10 03:37:14;;;;;;;3.47;3.27;;;7.30;47.70;;;;;;5048818;28;20355;-51
2023/11/10 03:39:41;;;;;;;3.30;2.87;;;7.30;47.80;;;;;;5043880;28;20292;-51
2023/11/10 03:42:07;;;;;;;3.50;3.30;;;7.20;47.70;;;;;;5046647;28;20357;-50
2023/11/10 03:44:34;;;;;;;3.67;3.37;;;7.20;47.70;;;;;;5049657;28;20297;-51
2023/11/10 03:47:00;;;;;;;4.13;3.63;;;7.20;47.90;;;;;;5051748;28;20305;-50
2023/11/10 03:49:27;;;;;;;3.87;3.53;;;7.20;48.30;;;;;;5052077;28;20292;-55
2023/11/10 03:51:53;;;;;;;3.43;3.13;;;7.20;48.30;;;;;;5050500;28;20750;-49
2023/11/10 03:54:19;;;;;;;2.90;2.70;;;7.10;48.30;;;;;;5049162;28;20288;-50
2023/11/10 03:56:46;;;;;;;3.27;3.07;;;7.20;48.60;;;;;;5044567;28;20288;-50
2023/11/10 03:59:12;;;;;;;3.33;3.13;;;7.10;48.60;;;;;;5043428;28;20739;-52
2023/11/10 04:01:39;;;;;;;3.50;3.30;;;7.10;48.60;;;;;;5048591;28;20225;-50
2023/11/10 04:04:05;;;;;;;3.63;3.33;;;7.10;49.00;;;;;;5051385;28;20292;-50
2023/11/10 04:06:32;;;;;;;3.50;3.20;;;7.10;49.20;;;;;;5048948;28;20218;-50
2023/11/10 04:08:58;;;;;;;3.63;3.43;;;7.00;49.20;;;;;;5051652;28;20638;-50
2023/11/10 04:11:25;;;;;;;4.03;3.73;;;7.00;49.30;;;;;;5051451;28;20225;-50
2023/11/10 04:13:52;;;;;;;3.80;3.40;;;7.00;49.80;;;;;;5044589;28;20198;-51
2023/11/10 04:16:20;;;;;;;3.70;3.50;;;7.00;49.70;;;;;;5041531;28;20284;-50
2023/11/10 04:18:47;;;;;;;3.67;3.47;;;7.00;49.70;;;;;;5051744;28;20205;-49
2023/11/10 04:21:14;;;;;;;3.60;3.30;;;7.00;50.20;;;;;;5052120;28;20221;-50
2023/11/10 04:23:41;;;;;;;3.70;3.40;;;6.90;49.70;;;;;;5051125;28;20293;-49
2023/11/10 04:26:08;;;;;;;4.10;3.30;;;7.00;49.80;;;;;;5050395;28;20209;-49
2023/11/10 04:28:35;;;;;;;3.60;3.30;;;6.90;50.00;;;;;;5048262;28;20293;-54
2023/11/10 04:31:01;;;;;;;3.43;3.20;;;7.00;49.90;;;;;;5035689;28;20285;-50
2023/11/10 04:33:28;;;;;;;3.90;3.60;;;6.90;49.90;;;;;;5041195;28;20293;-51
2023/11/10 04:35:55;;;;;;;3.30;3.10;;;6.90;50.10;;;;;;5049860;28;20202;-51
2023/11/10 04:38:21;;;;;;;3.27;3.07;;;6.90;49.90;;;;;;5047475;28;20731;-52
2023/11/10 04:40:49;;;;;;;3.67;3.37;;;7.00;50.10;;;;;;5048934;28;20652;-53
2023/11/10 04:43:15;;;;;;;3.40;3.20;;;7.00;50.20;;;;;;5051524;28;20210;-51
2023/11/10 04:45:42;;;;;;;4.00;3.60;;;7.00;49.70;;;;;;5049129;28;20241;-51
2023/11/10 04:48:08;;;;;;;4.20;3.37;;;7.10;50.30;;;;;;5043206;28;20221;-52
2023/11/10 04:50:35;;;;;;;3.20;3.00;;;7.10;50.60;;;;;;5048560;28;20301;-50
2023/11/10 04:53:03;;;;;;;3.80;3.50;;;7.10;50.40;;;;;;5045243;28;20298;-53
2023/11/10 04:55:30;;;;;;;4.10;3.47;;;7.00;50.50;;;;;;5044801;28;20212;-51
2023/11/10 04:57:56;;;;;;;3.93;3.63;;;7.00;50.40;;;;;;5050733;28;20364;-55
2023/11/10 05:00:23;;;;;;;3.90;3.60;;;6.90;50.70;;;;;;5049252;28;20336;-51
2023/11/10 05:02:51;;;;;;;3.57;3.37;;;7.00;50.90;;;;;;5049993;28;20224;-52
2023/11/10 05:05:17;;;;;;;4.00;3.10;;;7.00;50.70;;;;;;5046415;28;20677;-50
2023/11/10 05:07:44;;;;;;;4.00;3.53;;;7.00;50.90;;;;;;5045117;28;20304;-49
2023/11/10 05:10:10;;;;;;;3.93;3.43;;;7.00;50.70;;;;;;5050043;28;20288;-49
2023/11/10 05:12:37;;;;;;;4.37;3.37;;;6.90;51.10;;;;;;5050183;28;20316;-53
2023/11/10 05:15:05;;;;;;;4.63;3.23;;;6.90;51.70;;;;;;5051132;28;20301;-53
2023/11/10 05:17:32;;;;;;;5.07;3.93;;;6.80;51.80;;;;;;5049159;28;20241;-52
2023/11/10 05:19:58;;;;;;;3.30;3.10;;;6.80;51.80;;;;;;5050695;28;20297;-50
2023/11/10 05:22:25;;;;;;;3.03;2.83;;;6.80;51.50;;;;;;5047468;28;20221;-52
2023/11/10 05:24:52;;;;;;;3.63;3.10;;;6.80;51.80;;;;;;5046577;28;20216;-54
2023/11/10 05:27:19;;;;;;;3.53;3.23;;;6.80;52.10;;;;;;5046766;28;20257;-52
2023/11/10 05:29:45;;;;;;;3.10;2.90;;;6.70;52.20;;;;;;5051368;28;20352;-51
2023/11/10 05:32:12;;;;;;;3.50;3.20;;;6.70;52.40;;;;;;5048574;28;20243;-52
2023/11/10 05:34:38;;;;;;;3.57;3.37;;;6.70;52.30;;;;;;5050681;28;20641;-52
2023/11/10 05:37:05;;;;;;;3.83;3.30;;;6.70;52.30;;;;;;5047791;28;20245;-50
2023/11/10 05:39:31;;;;;;;3.70;3.40;;;6.80;51.80;;;;;;5041287;28;20213;-55
2023/11/10 05:41:58;;;;;;;3.17;2.90;;;6.80;52.10;;;;;;5044983;28;20225;-52
2023/11/10 05:44:24;;;;;;;3.50;3.30;;;6.80;51.90;;;;;;5049650;28;20601;-54
2023/11/10 05:46:51;;;;;;;3.37;3.00;;;6.90;51.90;;;;;;5042939;28;20308;-51
2023/11/10 05:49:17;;;;;;;3.30;3.10;;;7.00;51.70;;;;;;5050028;28;20583;-50
2023/11/10 05:51:44;;;;;;;3.23;2.93;;;7.10;51.50;;;;;;5048835;28;20316;-55
2023/11/10 05:54:12;;;;;;;3.50;2.90;;;7.10;51.30;;;;;;5049519;28;20208;-54
2023/11/10 05:56:38;;;;;;;3.27;3.00;;;7.20;51.00;;;;;;5042961;28;20194;-54
2023/11/10 05:59:05;;;;;;;2.90;2.70;;;7.20;51.00;;;;;;5044588;28;20206;-52
2023/11/10 06:01:31;;;;;;;3.60;3.10;;;7.30;51.30;;;;;;5045747;28;20236;-52
2023/11/10 06:03:58;;;;;;;3.20;2.80;;;7.30;51.20;;;;;;5047824;28;20202;-55
2023/11/10 06:06:24;;;;;;;3.23;2.87;;;7.30;51.50;;;;;;5047333;28;20284;-53
2023/11/10 06:08:51;;;;;;;3.50;2.97;;;7.40;51.30;;;;;;5043309;28;20202;-51
2023/11/10 06:11:17;;;;;;;3.50;3.20;;;7.40;51.10;;;;;;5042977;28;20328;-49
2023/11/10 06:13:44;;;;;;;3.03;2.73;;;7.40;51.40;;;;;;5042682;28;20644;-53
2023/11/10 06:16:12;;;;;;;3.27;3.07;;;7.40;51.10;;;;;;5038318;28;20201;-51
2023/11/10 06:18:39;;;;;;;3.07;2.87;;;7.50;51.30;;;;;;5032668;28;20198;-53
2023/11/10 06:21:05;;;;;;;3.17;2.87;;;7.50;51.30;;;;;;5043298;28;20226;-54
2023/11/10 06:23:33;;;;;;;3.17;2.93;;;7.50;51.30;;;;;;5043982;28;20651;-52
2023/11/10 06:25:59;;;;;;;5.17;3.03;;;7.50;51.60;;;;;;5047560;28;20216;-55
2023/11/10 06:28:26;;;;;;;4.37;2.70;;;7.50;52.30;;;;;;5048828;28;20318;-54
2023/11/10 06:30:52;;;;;;;3.83;2.83;;;7.50;51.80;;;;;;5052576;28;20248;-51
2023/11/10 06:33:19;;;;;;;3.80;3.10;;;7.50;52.10;;;;;;5043087;28;20264;-55
2023/11/10 06:35:46;;;;;;;2.93;2.60;;;7.50;52.40;;;;;;5054608;28;20206;-53
2023/11/10 06:38:13;;;;;;;4.73;3.00;;;7.50;52.40;;;;;;5050241;28;20684;-53
2023/11/10 06:40:39;;;;;;;5.47;3.23;;;7.50;52.60;;;;;;5050821;28;20676;-52
2023/11/10 06:43:07;;;;;;;5.20;2.90;;;7.40;53.00;;;;;;5055260;28;20274;-54
2023/11/10 06:45:33;;;;;;;6.10;3.20;;;7.50;53.00;;;;;;5054911;28;20264;-54
2023/11/10 06:48:03;;;;;;;3.07;2.77;;;7.50;52.90;;;;;;5047033;28;20291;-54
2023/11/10 06:50:31;;;;;;;3.47;3.17;;;7.50;53.20;;;;;;5046912;28;20213;-57
2023/11/10 06:52:57;;;;;;;5.20;3.50;;;7.50;53.20;;;;;;5052330;28;20255;-57
2023/11/10 06:55:24;;;;;;;3.17;2.97;;;7.60;53.30;;;;;;5041815;28;20293;-54
2023/11/10 06:57:51;;;;;;;3.60;3.30;;;7.60;53.20;;;;;;5048406;28;20301;-54
2023/11/10 07:00:18;;;;;;;4.23;3.83;;;7.60;52.90;;;;;;5048704;28;20340;-55
2023/11/10 07:02:44;;;;;;;3.20;3.00;;;7.70;53.20;;;;;;5053063;28;20232;-57
2023/11/10 07:05:11;;;;;;;3.10;2.90;;;7.70;53.10;;;;;;5053236;28;20296;-57
2023/11/10 07:07:38;;;;;;;3.17;2.87;;;7.70;53.30;;;;;;5035451;28;20294;-52
2023/11/10 07:10:04;;;;;;;7.33;4.47;;;7.80;53.50;;;;;;5048133;28;20210;-54
2023/11/10 07:12:31;;;;;;;4.33;3.23;;;7.90;53.30;;;;;;5050933;28;20269;-53
2023/11/10 07:14:58;;;;;;;5.13;3.37;;;7.90;53.10;;;;;;5050258;28;20302;-53
2023/11/10 07:17:26;;;;;;;4.13;3.33;;;8.00;53.00;;;;;;5051552;28;20210;-54
2023/11/10 07:19:52;;;;;;;5.50;3.27;;;8.00;53.10;;;;;;5045828;28;20236;-53
2023/11/10 07:22:19;;;;;;;3.57;3.20;;;8.10;53.00;;;;;;5044040;28;20221;-54
2023/11/10 07:24:45;;;;;;;3.67;2.90;;;8.10;53.20;;;;;;5050255;28;20217;-53
2023/11/10 07:27:12;;;;;;;3.50;3.20;;;8.20;53.00;;;;;;5052921;28;20312;-51
2023/11/10 07:29:38;;;;;;;3.20;2.90;;;8.20;53.00;;;;;;5052668;28;20429;-53
2023/11/10 07:32:05;;;;;;;3.60;3.00;;;8.30;53.10;;;;;;5049163;28;20322;-52
2023/11/10 07:34:31;;;;;;;3.73;3.30;;;8.40;53.10;;;;;;5052632;28;20206;-57
2023/11/10 07:36:58;;;;;;;5.40;3.23;;;8.50;52.50;;;;;;5020875;28;20704;-56
2023/11/10 07:39:28;;;;;;;3.33;2.90;;;8.60;52.30;;;;;;5046749;28;20207;-61
2023/11/10 07:41:55;;;;;;;3.17;2.87;;;8.70;52.10;;;;;;5049367;28;20222;-54
2023/11/10 07:44:21;;;;;;;2.90;2.70;;;8.80;52.40;;;;;;5045455;28;20644;-56
2023/11/10 07:46:48;;;;;;;3.30;3.00;;;8.80;51.80;;;;;;5052424;28;20281;-62
2023/11/10 07:49:14;;;;;;;3.30;2.70;;;8.90;52.00;;;;;;5051119;28;20248;-52
2023/11/10 07:51:41;;;;;;;3.13;2.83;;;8.90;51.90;;;;;;5053929;28;20311;-52
2023/11/10 07:54:07;;;;;;;3.07;2.70;;;8.80;51.80;;;;;;5054326;28;20645;-52
2023/11/10 07:56:33;;;;;;;3.00;2.70;;;8.80;51.90;;;;;;5054757;28;20249;-53
2023/11/10 07:59:00;;;;;;;3.07;2.73;;;8.80;52.10;;;;;;5050322;28;20314;-54
2023/11/10 08:01:26;;;;;;;3.20;2.90;;;8.80;52.30;;;;;;5052038;28;20223;-56
2023/11/10 08:03:53;;;;;;;3.80;2.90;;;8.80;52.20;;;;;;5043944;28;21139;-53
2023/11/10 08:06:20;;;;;;;3.10;2.90;;;9.00;51.90;;;;;;5054398;28;20299;-54
2023/11/10 08:08:46;;;;;;;3.03;2.83;;;9.20;51.60;;;;;;5052264;28;20224;-56
2023/11/10 08:11:14;;;;;;;2.73;2.53;;;9.40;51.60;;;;;;5052095;28;20320;-54
2023/11/10 08:13:41;;;;;;;3.30;2.73;;;9.70;50.70;;;;;;5043591;28;20296;-55
2023/11/10 08:16:08;;;;;;;2.50;2.30;;;10.00;49.10;;;;;;5047690;28;20299;-56
2023/11/10 08:18:34;;;;;;;2.20;2.10;;;9.90;49.50;;;;;;5044904;28;20268;-53
2023/11/10 08:21:01;;;;;;;2.10;2.00;;;10.00;48.70;;;;;;5046567;28;20783;-54
2023/11/10 08:23:27;;;;;;;2.20;2.10;;;9.80;49.80;;;;;;5039118;28;20213;-53
2023/11/10 08:25:54;;;;;;;1.87;1.77;;;9.90;49.40;;;;;;5051965;28;20236;-55
2023/11/10 08:28:20;;;;;;;2.20;1.87;;;9.80;49.50;;;;;;5052297;28;20298;-58
2023/11/10 08:30:47;;;;;;;1.90;1.80;;;10.00;50.00;;;;;;5047942;28;20293;-51
2023/11/10 08:33:14;;;;;;;2.13;2.00;;;9.90;49.50;;;;;;5053187;28;20266;-54
2023/11/10 08:35:41;;;;;;;2.60;2.00;;;9.90;49.70;;;;;;5038812;28;20204;-57
2023/11/10 08:38:09;;;;;;;2.17;2.07;;;9.80;49.90;;;;;;5052968;28;20232;-53
2023/11/10 08:40:35;;;;;;;1.80;1.70;;;9.80;49.80;;;;;;5053957;28;20236;-55
2023/11/10 08:43:02;;;;;;;3.47;1.90;;;9.90;49.90;;;;;;5036303;28;20649;-52
2023/11/10 08:45:29;;;;;;;2.07;1.90;;;9.80;49.90;;;;;;5052330;28;20287;-54
2023/11/10 08:47:55;;;;;;;1.87;1.77;;;9.70;50.10;;;;;;5034263;28;20247;-55
2023/11/10 08:50:21;;;;;;;2.93;1.80;;;9.70;50.50;;;;;;5036073;28;20213;-52
2023/11/10 08:52:48;;;;;;;2.07;1.83;;;9.60;50.60;;;;;;5045975;28;20220;-53
2023/11/10 08:55:20;;;;;;;2.00;1.90;;;9.50;50.90;;;;;;5049545;28;20274;-54
2023/11/10 08:57:47;;;;;;;2.20;2.00;;;9.50;51.40;;;;;;5019646;28;20714;-53
2023/11/10 09:00:16;;;;;;;1.87;1.70;;;9.50;51.80;;;;;;5049421;28;20214;-52
2023/11/10 09:02:43;;;;;;;2.00;1.90;;;9.30;52.50;;;;;;5044180;28;20232;-51
2023/11/10 09:05:10;;;;;;;1.67;1.63;;;9.40;53.30;;;;;;5037768;28;20248;-54
2023/11/10 09:07:36;;;;;;;1.80;1.70;;;9.20;53.30;;;;;;5046926;28;20290;-54
2023/11/10 09:10:02;;;;;;;1.90;1.80;;;9.30;53.90;;;;;;5022290;28;20294;-53
2023/11/10 09:12:30;;;;;;;1.80;1.70;;;9.30;54.40;;;;;;5040015;28;20255;-53
2023/11/10 09:14:57;;;;;;;1.80;1.70;;;9.30;54.80;;;;;;5053602;28;20214;-52
2023/11/10 09:17:23;;;;;;;2.00;1.90;;;9.30;54.00;;;;;;5047594;28;20291;-56
2023/11/10 09:19:50;;;;;;;1.83;1.40;;;9.30;54.20;;;;;;5049922;28;20205;-56
2023/11/10 09:22:16;;;;;;;1.80;1.70;;;9.10;54.80;;;;;;5046395;28;20316;-52
2023/11/10 09:24:42;;;;;;;1.80;1.70;;;9.10;54.60;;;;;;5049875;28;20307;-52
2023/11/10 09:27:09;;;;;;;1.60;1.50;;;9.10;55.20;;;;;;5037835;28;20873;-53
2023/11/10 09:29:35;;;;;;;1.80;1.70;;;9.10;55.00;;;;;;5042216;28;20238;-54
2023/11/10 09:32:02;;;;;;;1.70;1.60;;;9.00;55.00;;;;;;5047039;28;20311;-53
2023/11/10 09:34:29;;;;;;;1.90;1.80;;;9.00;55.90;;;;;;5043490;28;20236;-54
2023/11/10 09:36:57;;;;;;;1.63;1.53;;;8.90;55.70;;;;;;5044525;28;20226;-60
2023/11/10 09:39:24;;;;;;;1.87;1.70;;;8.90;56.20;;;;;;5047503;28;20232;-54
2023/11/10 09:41:51;;;;;;;1.80;1.70;;;9.00;55.90;;;;;;5050010;28;20237;-54
2023/11/10 09:44:18;;;;;;;1.80;1.70;;;9.10;56.60;;;;;;5050508;28;20236;-55
2023/11/10 09:46:47;;;;;;;1.70;1.60;;;9.00;56.50;;;;;;5047368;28;20271;-53
2023/11/10 09:49:13;;;;;;;1.67;1.57;;;9.10;57.30;;;;;;5044632;28;20358;-53
2023/11/10 09:51:39;;;;;;;1.50;1.50;;;9.10;56.80;;;;;;5052726;28;20267;-53
2023/11/10 09:54:06;;;;;;;1.80;1.70;;;9.30;56.50;;;;;;5052779;28;20296;-54
2023/11/10 09:56:35;;;;;;;1.20;1.20;;;9.40;56.20;;;;;;5049132;28;20304;-52
2023/11/10 09:59:02;;;;;;;1.63;1.60;;;9.40;56.30;;;;;;5051749;28;20235;-51
2023/11/10 10:01:29;;;;;;;1.30;1.30;;;9.30;56.40;;;;;;5052098;28;20607;-53
2023/11/10 10:03:55;;;;;;;1.70;1.63;;;9.00;55.80;;;;;;5044726;28;20300;-53
2023/11/10 10:06:21;;;;;;;1.50;1.50;;;8.90;56.50;;;;;;5051893;28;20283;-55
2023/11/10 10:08:48;;;;;;;1.60;1.50;;;8.90;56.10;;;;;;5056268;28;20262;-57
2023/11/10 10:11:15;;;;;;;1.67;1.60;;;8.90;56.20;;;;;;5049381;28;20236;-53
2023/11/10 10:13:40;;;;;;;1.40;1.40;;;9.00;56.20;;;;;;5051115;28;20303;-54
2023/11/10 10:16:07;;;;;;;1.50;1.40;;;9.20;55.80;;;;;;5055341;28;20299;-51
2023/11/10 10:18:33;;;;;;;1.57;1.57;;;9.50;54.80;;;;;;5050864;28;20222;-57
2023/11/10 10:21:00;;;;;;;1.70;1.60;;;9.90;53.90;;;;;;5047670;28;20338;-54
2023/11/10 10:23:26;;;;;;;1.70;1.60;;;10.30;51.30;;;;;;5042405;28;20594;-53
2023/11/10 10:25:53;;;;;;;1.30;1.20;;;11.90;48.50;;;;;;5028884;28;20317;-51
2023/11/10 10:28:19;;;;;;;1.80;1.40;;;13.00;45.30;;;;;;5043140;28;20286;-55
2023/11/10 10:30:47;;;;;;;1.20;1.10;;;12.20;45.50;;;;;;5039068;28;20754;-55
2023/11/10 10:33:13;;;;;;;1.30;1.30;;;11.70;46.50;;;;;;5043548;28;20212;-55
2023/11/10 10:35:40;;;;;;;1.07;1.07;;;11.50;47.40;;;;;;5045974;28;20210;-52
2023/11/10 10:38:07;;;;;;;1.20;1.20;;;11.40;47.80;;;;;;5047629;28;20705;-54
2023/11/10 10:40:35;;;;;;;1.30;1.20;;;11.50;47.60;;;;;;5042749;28;20203;-53
2023/11/10 10:43:02;;;;;;;1.57;1.30;;;12.30;45.60;;;;;;5051917;28;20470;-57
2023/11/10 10:45:30;;;;;;;1.20;1.20;;;11.90;46.20;;;;;;5037872;28;20666;-55
2023/11/10 10:47:58;;;;;;;1.10;1.10;;;11.40;46.10;;;;;;5047710;28;20288;-57
2023/11/10 10:50:27;;;;;;;1.20;1.10;;;10.90;46.40;;;;;;5050220;28;20218;-54
2023/11/10 10:52:55;;;;;;;1.43;1.43;;;10.70;46.60;;;;;;5033187;28;20269;-54
2023/11/10 10:55:21;;;;;;;1.40;1.30;;;10.60;45.70;;;;;;5039455;28;20224;-54
2023/11/10 10:57:48;;;;;;;1.47;1.37;;;10.60;46.90;;;;;;5053150;28;20295;-52
2023/11/10 11:00:16;;;;;;;1.40;1.30;;;10.70;47.10;;;;;;5045447;28;20240;-53
2023/11/10 11:02:43;;;;;;;1.30;1.30;;;10.60;46.50;;;;;;5041449;28;20390;-50
2023/11/10 11:05:10;;;;;;;1.30;1.30;;;10.60;46.90;;;;;;5048384;28;20203;-54
2023/11/10 11:07:36;;;;;;;1.20;1.20;;;10.80;46.70;;;;;;5049035;28;20247;-56
2023/11/10 11:10:06;;;;;;;1.10;1.10;;;11.00;45.60;;;;;;5042624;28;20724;-53
2023/11/10 11:12:32;;;;;;;1.50;1.30;;;10.90;46.80;;;;;;5042197;28;20231;-52
2023/11/10 11:15:00;;;;;;;1.30;1.30;;;10.80;46.50;;;;;;5051611;28;20241;-53
2023/11/10 11:17:26;;;;;;;1.33;1.30;;;10.70;47.20;;;;;;5051506;28;20572;-57
2023/11/10 11:19:53;;;;;;;2.00;1.30;;;10.80;47.30;;;;;;5048193;28;20310;-57
2023/11/10 11:22:19;;;;;;;1.23;1.23;;;10.60;46.80;;;;;;5034805;28;20266;-55
2023/11/10 11:24:46;;;;;;;1.27;1.20;;;10.50;47.10;;;;;;5042916;28;20302;-55
2023/11/10 11:27:13;;;;;;;1.20;1.20;;;10.30;47.70;;;;;;5045837;28;20236;-53
2023/11/10 11:29:39;;;;;;;1.30;1.30;;;10.20;48.50;;;;;;5040601;28;20240;-55
2023/11/10 11:32:08;;;;;;;1.30;1.30;;;10.10;48.50;;;;;;5036480;28;20230;-52
2023/11/10 11:34:34;;;;;;;1.40;1.40;;;10.10;48.70;;;;;;5040329;28;20851;-53
2023/11/10 11:37:03;;;;;;;1.30;1.30;;;9.90;50.30;;;;;;5043866;28;20255;-52
2023/11/10 11:55:02;;;;;;;1.67;1.57;;;9.70;52.40;;;;;;5741843;23;20404;-59
2023/11/10 11:57:32;;;;;;;1.57;1.57;;;9.70;52.60;;;;;;4978771;28;20210;-63
2023/11/10 11:59:58;;;;;;;1.50;1.50;;;9.70;51.30;;;;;;4986077;28;20238;-60
2023/11/10 12:02:25;;;;;;;1.60;1.50;;;9.60;51.60;;;;;;4979050;28;20229;-56
2023/11/10 12:04:51;;;;;;;1.60;1.50;;;9.70;51.70;;;;;;4984853;28;20219;-58
2023/11/10 12:07:18;;;;;;;2.03;1.57;;;9.70;51.80;;;;;;4972630;28;20773;-54
2023/11/10 12:09:45;;;;;;;1.70;1.60;;;9.60;51.50;;;;;;4975876;28;20290;-57
2023/11/10 12:12:13;;;;;;;1.83;1.70;;;9.60;51.70;;;;;;4968999;28;20244;-58
2023/11/10 12:14:40;;;;;;;2.00;1.60;;;9.70;51.70;;;;;;4974649;28;20713;-54
2023/11/10 12:17:06;;;;;;;1.50;1.40;;;9.80;51.50;;;;;;4977182;28;20294;-55
2023/11/10 12:19:33;;;;;;;1.50;1.40;;;10.00;49.40;;;;;;4970518;28;20319;-58
2023/11/10 12:22:00;;;;;;;6.73;2.43;;;9.90;50.90;;;;;;4963128;28;20211;-55
2023/11/10 12:24:29;;;;;;;2.37;1.60;;;9.80;51.10;;;;;;4966006;28;20688;-56
2023/11/10 12:26:57;;;;;;;1.43;1.33;;;9.80;51.50;;;;;;4970826;28;20305;-57
2023/11/10 12:29:26;;;;;;;1.70;1.63;;;9.90;52.30;;;;;;4967397;28;20299;-56
2023/11/10 12:31:52;;;;;;;1.70;1.60;;;9.90;50.50;;;;;;4971654;28;20297;-58
2023/11/10 12:34:19;;;;;;;1.50;1.40;;;10.10;49.20;;;;;;4980427;28;20217;-56
2023/11/10 12:36:45;;;;;;;2.70;1.67;;;10.50;49.00;;;;;;4986229;28;20231;-54
2023/11/10 12:39:17;;;;;;;1.57;1.47;;;10.40;48.00;;;;;;4962770;28;20228;-59
2023/11/10 12:41:43;;;;;;;1.60;1.50;;;10.30;47.90;;;;;;4978733;28;20216;-63
2023/11/10 12:44:10;;;;;;;22.47;8.23;;;11.00;46.20;;;;;;4961913;28;20288;-52
2023/11/10 12:46:37;;;;;;;28.30;8.47;;;11.00;48.50;;;;;;4966815;28;20319;-52
2023/11/10 12:49:03;;;;;;;2.27;2.00;;;11.30;47.90;;;;;;4967729;28;20292;-54
2023/11/10 12:51:30;;;;;;;1.40;1.40;;;11.50;45.00;;;;;;4949933;28;20584;-57
2023/11/10 12:53:56;;;;;;;1.60;1.50;;;11.00;45.70;;;;;;4966150;28;20222;-60
2023/11/10 12:56:23;;;;;;;1.40;1.40;;;10.70;46.00;;;;;;4963666;28;20324;-56
2023/11/10 12:58:49;;;;;;;1.83;1.50;;;10.60;45.90;;;;;;4973715;28;20334;-56
2023/11/10 13:01:16;;;;;;;1.60;1.50;;;10.70;45.70;;;;;;4977719;28;20631;-56
2023/11/10 13:03:43;;;;;;;1.50;1.50;;;10.60;46.30;;;;;;4970366;28;20202;-60
2023/11/10 13:06:09;;;;;;;1.20;1.20;;;10.70;46.20;;;;;;4961374;28;20233;-60
2023/11/10 13:08:36;;;;;;;1.60;1.50;;;10.70;46.40;;;;;;4957864;28;20280;-59